Boothia: Past 24 Hour Conditions

 

Nain Airport

10:00 AM AST 23 November 2014
This table is a summary of hourly weather conditions for the past 24 hours.
Date / Time
(AST)
Wind(knots) Conditions Visibility(km) Pressure(kPa) Air tempC) Relative humidity(%) Dew pointC) Wind Chill
23 November 2014
10:00 WNW 22 Partly Cloudy 24 99.6 -8 62 -14 -18
9:00 WNW 14 gust 20 Partly Cloudy 24 99.5 -8 61 -14 -16
8:00 NW 15 Cloudy 24 99.4 -8 64 -14 -17
7:00 WNW 13 Cloudy 24 99.3 -10 69 -14 -18
6:00 W 7 Cloudy 24 99.3 -10 71 -14 -16
5:00 SW 5 Cloudy 24 99.2 -12 70 -17 -17
4:00 W 5 N/A N/A 99.1 -10 71 -14 -15
3:00 W 4 N/A N/A 99.1 -11 72 -15 -15
2:00 SE 2 N/A N/A 99.1 -13 73 -17 -16
1:00 S 3 N/A N/A 99.1 -13 72 -17 -16
0:00 SSW 3 N/A N/A 99.2 -13 71 -17 -17
22 November 2014
23:00 SSW 6 N/A N/A 99.1 -14 75 -17 -20
22:00 SSW 1 N/A N/A 99.2 -12 67 -17 -14
21:00 WSW 4 N/A N/A 99.2 -13 69 -18 -18
20:00 WSW 10 Clear 24 99.3 -13 60 -19 -21
19:00 WNW 18 Clear 24 99.3 -11 64 -16 -21
18:00 WSW 2 Clear 24 99.4 -12 64 -17 -15
17:00 WNW 12 Clear 24 99.5 -12 60 -18 -21
16:00 W 17 Clear 24 99.5 -11 55 -18 -21
15:00 WNW 16 Sunny 24 99.5 -10 58 -17 -20
14:00 WNW 16 Sunny 24 99.5 -10 53 -17 -19
13:00 W 16 gust 21 Sunny 24 99.6 -9 52 -17 -18
12:00 W 16 gust 21 Sunny 24 99.6 -9 55 -16 -18
11:00 WNW 21 gust 26 Sunny 24 99.7 -9 57 -16 -20
10:00 WNW 19 Sunny 24 99.7 -9 54 -17 -19
 
Map of Arctic - Eastern Arctic marine weather areas Baker Lake Airport Chesterfield Inlet Airport Coral Harbour Airport Gjoa Haven Airport Kugaaruk Airport Rankin Inlet Airport Shepherd Bay Airport Whale Cove Airport Arctic Bay Brevoort Island Qikiqtarjuaq Airport Cape Dorset Airport Cape Dyer Cape Hooper Clyde Airport Grise Fiord Airport Hall Beach Airport Igloolik Airport Iqaluit Airport Longstaff Bluff Pangnirtung Airport Pond Inlet Airport Repulse Bay Airport Resolute Airport Resolution Island Rowley Island Airport Taloyoak Airport Wager Bay Akulivik Airport Ivujivik Airport Puvirnituq Airport Kangiqsujuaq Airport Kangirsuk Airport Quaqtaq Airport Tasiujaq Airport Cape Kakkiviak Cape Kiglapait Nain Airport Saglek Cape Mercy Kimmirut Airport Aupaluk Airport Salluit Airport Kangiqsualujjuaq Airport Fort Ross
Legend: buoyBuoy land stationLand Station